Main page
Satellite images 10-day forecastsClimateMarine weather Cyclones Lightning AirportsFAQ Newsletter About
Weather : Europe Africa North America South America Asia Australia-Oceania Others
Languages Contact

Buenos Aires, Argentina

Aeroparque Jorge Newbery

latitude: 34-34S, longitude: 058-25W, elevation: 6 m


METAR: SABE 301600Z 20011KT CAVOK 17/07 Q1013
TAF: SABE 301100Z 3012/0112 27005KT 9999 FEW018 BKN100 TX17/3018Z TN07/0110Z BECMG 3013/3014 22010KT CAVOK BECMG 0102/0103 14005KT

Time: 13:46 (16:46 UTC)

Current weather observation

The report was made 46 minutes ago, at 16:00 UTC
Wind 11 kt from the South/Southwest
Temperature 17°C
Humidity 52%
Pressure 1013 hPa
Visibility 10 km or more
no clouds below 1500 m and no cumulonimbus

Change units

Forecast

The report was made 5 hours and 46 minutes ago, at 11:00 UTC
Forecast valid from 30 at 12 UTC to 01 at 12 UTC
Wind 5 kt from the West
Visibility 10 km or more
Few clouds at a height of 1800 ft
Broken clouds at a height of 10000 ft
Becoming
from 30 at 13 UTC to 30 at 14 UTC
Wind 10 kt from the Southwest
Visibility 10 km or more
no clouds below 1500 m and no cumulonimbus
Becoming
from 01 at 02 UTC to 01 at 03 UTC
Wind 5 kt from the Southeast
The information on this site is subject to a disclaimer
Weather : Europe Africa North America South America Asia Australia-Oceania Others
Satellite images 10-day forecastsClimateMarine weather Cyclones Lightning AirportsFAQ Languages Contact Newsletter About